sensor_id;sensor_type;location;lat;lon;timestamp;P1;durP1;ratioP1;P2;durP2;ratioP2
1567;SDS011;777;47.156;8.326;2023-02-01T00:00:28;11.60;;;9.02;;
1567;SDS011;777;47.156;8.326;2023-02-01T00:02:55;15.80;;;11.07;;
1567;SDS011;777;47.156;8.326;2023-02-01T00:05:22;14.73;;;10.15;;
1567;SDS011;777;47.156;8.326;2023-02-01T00:07:49;13.68;;;9.65;;
1567;SDS011;777;47.156;8.326;2023-02-01T00:10:16;14.20;;;9.45;;
1567;SDS011;777;47.156;8.326;2023-02-01T00:12:43;13.35;;;9.70;;
1567;SDS011;777;47.156;8.326;2023-02-01T00:15:12;14.20;;;10.32;;
1567;SDS011;777;47.156;8.326;2023-02-01T00:17:39;12.95;;;9.18;;
1567;SDS011;777;47.156;8.326;2023-02-01T00:20:06;12.75;;;9.07;;
1567;SDS011;777;47.156;8.326;2023-02-01T00:22:34;14.18;;;9.07;;
1567;SDS011;777;47.156;8.326;2023-02-01T00:25:01;14.27;;;8.98;;
1567;SDS011;777;47.156;8.326;2023-02-01T00:27:29;15.48;;;8.85;;
1567;SDS011;777;47.156;8.326;2023-02-01T00:29:56;11.57;;;8.63;;
1567;SDS011;777;47.156;8.326;2023-02-01T00:32:24;12.18;;;7.95;;
1567;SDS011;777;47.156;8.326;2023-02-01T00:34:51;12.25;;;8.82;;
1567;SDS011;777;47.156;8.326;2023-02-01T00:37:18;12.15;;;8.35;;
1567;SDS011;777;47.156;8.326;2023-02-01T00:39:46;12.90;;;7.90;;
1567;SDS011;777;47.156;8.326;2023-02-01T00:42:14;10.05;;;7.57;;
1567;SDS011;777;47.156;8.326;2023-02-01T00:44:41;13.52;;;7.90;;
1567;SDS011;777;47.156;8.326;2023-02-01T00:47:08;14.00;;;8.02;;
1567;SDS011;777;47.156;8.326;2023-02-01T00:49:38;12.40;;;7.38;;
1567;SDS011;777;47.156;8.326;2023-02-01T00:52:05;10.05;;;7.22;;
1567;SDS011;777;47.156;8.326;2023-02-01T00:54:32;8.73;;;6.28;;
1567;SDS011;777;47.156;8.326;2023-02-01T00:57:01;9.95;;;6.50;;
1567;SDS011;777;47.156;8.326;2023-02-01T00:59:28;7.25;;;6.15;;
1567;SDS011;777;47.156;8.326;2023-02-01T01:01:55;8.80;;;6.32;;
1567;SDS011;777;47.156;8.326;2023-02-01T01:04:22;8.38;;;5.78;;
1567;SDS011;777;47.156;8.326;2023-02-01T01:06:50;7.72;;;5.97;;
1567;SDS011;777;47.156;8.326;2023-02-01T01:09:17;8.07;;;5.82;;
1567;SDS011;777;47.156;8.326;2023-02-01T01:11:46;9.63;;;5.93;;
1567;SDS011;777;47.156;8.326;2023-02-01T01:14:13;7.45;;;5.03;;
1567;SDS011;777;47.156;8.326;2023-02-01T01:16:40;8.02;;;5.22;;
1567;SDS011;777;47.156;8.326;2023-02-01T01:19:07;8.98;;;6.13;;
1567;SDS011;777;47.156;8.326;2023-02-01T01:21:34;9.02;;;5.68;;
1567;SDS011;777;47.156;8.326;2023-02-01T01:24:03;12.13;;;6.10;;
1567;SDS011;777;47.156;8.326;2023-02-01T01:26:31;12.07;;;6.45;;
1567;SDS011;777;47.156;8.326;2023-02-01T01:28:58;8.23;;;5.80;;
1567;SDS011;777;47.156;8.326;2023-02-01T01:31:26;8.50;;;5.70;;
1567;SDS011;777;47.156;8.326;2023-02-01T01:33:54;8.38;;;5.47;;
1567;SDS011;777;47.156;8.326;2023-02-01T01:36:24;9.23;;;5.65;;
1567;SDS011;777;47.156;8.326;2023-02-01T01:38:52;9.82;;;6.35;;
1567;SDS011;777;47.156;8.326;2023-02-01T01:41:21;9.05;;;5.75;;
1567;SDS011;777;47.156;8.326;2023-02-01T01:43:53;9.23;;;6.30;;
1567;SDS011;777;47.156;8.326;2023-02-01T01:46:24;9.23;;;6.53;;
1567;SDS011;777;47.156;8.326;2023-02-01T01:48:58;8.90;;;6.20;;
1567;SDS011;777;47.156;8.326;2023-02-01T01:51:31;9.43;;;6.68;;
1567;SDS011;777;47.156;8.326;2023-02-01T01:54:06;9.73;;;6.60;;
1567;SDS011;777;47.156;8.326;2023-02-01T01:56:40;9.05;;;7.00;;
1567;SDS011;777;47.156;8.326;2023-02-01T01:59:07;10.48;;;7.47;;
1567;SDS011;777;47.156;8.326;2023-02-01T02:01:35;10.35;;;7.35;;
1567;SDS011;777;47.156;8.326;2023-02-01T02:04:02;10.50;;;7.97;;
1567;SDS011;777;47.156;8.326;2023-02-01T02:06:33;10.52;;;7.47;;
1567;SDS011;777;47.156;8.326;2023-02-01T02:09:05;10.90;;;8.05;;
1567;SDS011;777;47.156;8.326;2023-02-01T02:11:32;10.57;;;7.82;;
1567;SDS011;777;47.156;8.326;2023-02-01T02:14:01;11.38;;;7.80;;
1567;SDS011;777;47.156;8.326;2023-02-01T02:22:45;12.13;;;8.45;;
1567;SDS011;777;47.156;8.326;2023-02-01T02:25:37;15.40;;;9.55;;
1567;SDS011;777;47.156;8.326;2023-02-01T02:28:34;22.20;;;10.25;;
1567;SDS011;777;47.156;8.326;2023-02-01T02:31:28;16.98;;;10.30;;
1567;SDS011;777;47.156;8.326;2023-02-01T02:34:10;17.33;;;10.23;;
1567;SDS011;777;47.156;8.326;2023-02-01T02:36:45;17.90;;;10.27;;
1567;SDS011;777;47.156;8.326;2023-02-01T02:39:23;18.50;;;10.82;;
1567;SDS011;777;47.156;8.326;2023-02-01T02:41:59;21.70;;;11.68;;
1567;SDS011;777;47.156;8.326;2023-02-01T02:44:47;20.33;;;11.38;;
1567;SDS011;777;47.156;8.326;2023-02-01T02:47:40;23.08;;;11.18;;
1567;SDS011;777;47.156;8.326;2023-02-01T02:50:17;30.50;;;10.77;;
1567;SDS011;777;47.156;8.326;2023-02-01T02:53:08;20.15;;;10.90;;
1567;SDS011;777;47.156;8.326;2023-02-01T02:55:57;27.77;;;12.02;;
1567;SDS011;777;47.156;8.326;2023-02-01T02:58:43;33.22;;;11.70;;
1567;SDS011;777;47.156;8.326;2023-02-01T03:01:30;29.67;;;12.18;;
1567;SDS011;777;47.156;8.326;2023-02-01T03:04:16;18.67;;;9.73;;
1567;SDS011;777;47.156;8.326;2023-02-01T03:06:47;15.48;;;8.70;;
1567;SDS011;777;47.156;8.326;2023-02-01T03:09:16;12.80;;;8.45;;
1567;SDS011;777;47.156;8.326;2023-02-01T03:14:36;12.48;;;7.32;;
1567;SDS011;777;47.156;8.326;2023-02-01T03:17:11;8.73;;;5.80;;
1567;SDS011;777;47.156;8.326;2023-02-01T03:19:43;12.32;;;7.72;;
1567;SDS011;777;47.156;8.326;2023-02-01T03:22:17;16.63;;;7.63;;
1567;SDS011;777;47.156;8.326;2023-02-01T03:24:47;10.10;;;7.53;;
1567;SDS011;777;47.156;8.326;2023-02-01T03:27:18;12.07;;;7.03;;
1567;SDS011;777;47.156;8.326;2023-02-01T03:29:51;12.82;;;8.43;;
1567;SDS011;777;47.156;8.326;2023-02-01T03:32:25;12.68;;;7.50;;
1567;SDS011;777;47.156;8.326;2023-02-01T03:34:53;13.88;;;7.60;;
1567;SDS011;777;47.156;8.326;2023-02-01T03:37:23;10.60;;;7.60;;
1567;SDS011;777;47.156;8.326;2023-02-01T03:39:54;12.48;;;7.97;;
1567;SDS011;777;47.156;8.326;2023-02-01T03:42:27;11.90;;;7.88;;
1567;SDS011;777;47.156;8.326;2023-02-01T03:47:30;13.80;;;7.80;;
1567;SDS011;777;47.156;8.326;2023-02-01T03:50:02;12.50;;;7.93;;
1567;SDS011;777;47.156;8.326;2023-02-01T03:52:34;10.73;;;7.43;;
1567;SDS011;777;47.156;8.326;2023-02-01T03:55:06;11.65;;;8.02;;
1567;SDS011;777;47.156;8.326;2023-02-01T03:57:35;11.82;;;7.75;;
1567;SDS011;777;47.156;8.326;2023-02-01T04:00:07;12.70;;;7.38;;
1567;SDS011;777;47.156;8.326;2023-02-01T04:02:39;9.70;;;7.35;;
1567;SDS011;777;47.156;8.326;2023-02-01T04:05:07;11.73;;;7.35;;
1567;SDS011;777;47.156;8.326;2023-02-01T04:07:38;10.65;;;6.90;;
1567;SDS011;777;47.156;8.326;2023-02-01T04:10:06;9.48;;;7.10;;
1567;SDS011;777;47.156;8.326;2023-02-01T04:12:34;10.68;;;7.32;;
1567;SDS011;777;47.156;8.326;2023-02-01T04:15:01;12.82;;;7.68;;
1567;SDS011;777;47.156;8.326;2023-02-01T04:17:29;11.98;;;7.95;;
1567;SDS011;777;47.156;8.326;2023-02-01T04:19:56;11.45;;;7.30;;
1567;SDS011;777;47.156;8.326;2023-02-01T04:22:23;11.80;;;7.50;;
1567;SDS011;777;47.156;8.326;2023-02-01T04:24:52;11.18;;;7.40;;
1567;SDS011;777;47.156;8.326;2023-02-01T04:27:19;11.23;;;7.63;;
1567;SDS011;777;47.156;8.326;2023-02-01T04:29:46;13.80;;;9.07;;
1567;SDS011;777;47.156;8.326;2023-02-01T04:32:14;11.70;;;7.45;;
1567;SDS011;777;47.156;8.326;2023-02-01T04:34:41;12.13;;;8.60;;
1567;SDS011;777;47.156;8.326;2023-02-01T04:37:09;14.20;;;7.85;;
1567;SDS011;777;47.156;8.326;2023-02-01T04:39:35;11.73;;;7.60;;
1567;SDS011;777;47.156;8.326;2023-02-01T04:42:04;10.52;;;8.07;;
1567;SDS011;777;47.156;8.326;2023-02-01T04:44:31;11.18;;;7.30;;
1567;SDS011;777;47.156;8.326;2023-02-01T04:46:58;17.00;;;10.27;;
1567;SDS011;777;47.156;8.326;2023-02-01T04:49:25;14.35;;;9.10;;
1567;SDS011;777;47.156;8.326;2023-02-01T04:51:52;13.30;;;8.43;;
1567;SDS011;777;47.156;8.326;2023-02-01T04:54:19;11.82;;;8.20;;
1567;SDS011;777;47.156;8.326;2023-02-01T04:56:46;12.88;;;8.50;;
1567;SDS011;777;47.156;8.326;2023-02-01T04:59:15;17.15;;;9.05;;
1567;SDS011;777;47.156;8.326;2023-02-01T05:01:42;13.82;;;8.10;;
1567;SDS011;777;47.156;8.326;2023-02-01T05:04:09;13.15;;;7.57;;
1567;SDS011;777;47.156;8.326;2023-02-01T05:06:35;17.25;;;8.18;;
1567;SDS011;777;47.156;8.326;2023-02-01T05:09:02;15.00;;;8.60;;
1567;SDS011;777;47.156;8.326;2023-02-01T05:11:30;13.23;;;8.25;;
1567;SDS011;777;47.156;8.326;2023-02-01T05:14:15;13.65;;;8.40;;
1567;SDS011;777;47.156;8.326;2023-02-01T05:16:42;15.43;;;8.10;;
1567;SDS011;777;47.156;8.326;2023-02-01T05:19:09;16.70;;;8.25;;
1567;SDS011;777;47.156;8.326;2023-02-01T05:21:36;13.63;;;7.40;;
1567;SDS011;777;47.156;8.326;2023-02-01T05:24:04;13.98;;;8.68;;
1567;SDS011;777;47.156;8.326;2023-02-01T05:26:40;20.48;;;9.98;;
1567;SDS011;777;47.156;8.326;2023-02-01T05:29:08;14.77;;;9.23;;
1567;SDS011;777;47.156;8.326;2023-02-01T05:31:37;17.60;;;10.23;;
1567;SDS011;777;47.156;8.326;2023-02-01T05:34:04;14.73;;;8.60;;
1567;SDS011;777;47.156;8.326;2023-02-01T05:36:32;13.60;;;7.97;;
1567;SDS011;777;47.156;8.326;2023-02-01T05:38:59;11.75;;;8.10;;
1567;SDS011;777;47.156;8.326;2023-02-01T05:41:26;12.30;;;7.88;;
1567;SDS011;777;47.156;8.326;2023-02-01T05:43:53;14.13;;;8.32;;
1567;SDS011;777;47.156;8.326;2023-02-01T05:46:20;14.52;;;8.68;;
1567;SDS011;777;47.156;8.326;2023-02-01T05:48:48;13.73;;;8.60;;
1567;SDS011;777;47.156;8.326;2023-02-01T05:51:15;11.93;;;8.40;;
1567;SDS011;777;47.156;8.326;2023-02-01T05:53:42;12.18;;;8.43;;
1567;SDS011;777;47.156;8.326;2023-02-01T05:56:09;12.75;;;8.55;;
1567;SDS011;777;47.156;8.326;2023-02-01T05:58:36;12.02;;;8.68;;
1567;SDS011;777;47.156;8.326;2023-02-01T06:01:03;12.73;;;7.95;;
1567;SDS011;777;47.156;8.326;2023-02-01T06:03:30;12.43;;;8.40;;
1567;SDS011;777;47.156;8.326;2023-02-01T06:05:59;11.18;;;8.40;;
1567;SDS011;777;47.156;8.326;2023-02-01T06:08:26;13.82;;;8.70;;
1567;SDS011;777;47.156;8.326;2023-02-01T06:10:57;12.73;;;8.50;;
1567;SDS011;777;47.156;8.326;2023-02-01T06:13:24;12.65;;;9.35;;
1567;SDS011;777;47.156;8.326;2023-02-01T06:15:51;13.77;;;9.35;;
1567;SDS011;777;47.156;8.326;2023-02-01T06:18:18;12.60;;;9.32;;
1567;SDS011;777;47.156;8.326;2023-02-01T06:20:51;12.40;;;8.52;;
1567;SDS011;777;47.156;8.326;2023-02-01T06:23:20;12.98;;;9.15;;
1567;SDS011;777;47.156;8.326;2023-02-01T06:25:49;13.05;;;8.77;;
1567;SDS011;777;47.156;8.326;2023-02-01T06:28:17;12.45;;;8.20;;
1567;SDS011;777;47.156;8.326;2023-02-01T06:30:44;12.90;;;8.52;;
1567;SDS011;777;47.156;8.326;2023-02-01T06:33:13;12.02;;;7.97;;
1567;SDS011;777;47.156;8.326;2023-02-01T06:35:41;14.90;;;8.50;;
1567;SDS011;777;47.156;8.326;2023-02-01T06:38:09;13.98;;;8.43;;
1567;SDS011;777;47.156;8.326;2023-02-01T06:40:38;15.00;;;8.70;;
1567;SDS011;777;47.156;8.326;2023-02-01T06:43:06;12.82;;;7.90;;
1567;SDS011;777;47.156;8.326;2023-02-01T06:45:33;12.77;;;8.18;;
1567;SDS011;777;47.156;8.326;2023-02-01T06:48:00;12.40;;;9.52;;
1567;SDS011;777;47.156;8.326;2023-02-01T06:50:27;13.32;;;9.13;;
1567;SDS011;777;47.156;8.326;2023-02-01T06:52:55;12.00;;;9.30;;
1567;SDS011;777;47.156;8.326;2023-02-01T06:55:22;15.13;;;9.90;;
1567;SDS011;777;47.156;8.326;2023-02-01T06:57:53;10.52;;;9.25;;
1567;SDS011;777;47.156;8.326;2023-02-01T07:00:21;13.30;;;9.73;;
1567;SDS011;777;47.156;8.326;2023-02-01T07:02:48;13.23;;;9.15;;
1567;SDS011;777;47.156;8.326;2023-02-01T07:05:16;14.07;;;9.73;;
1567;SDS011;777;47.156;8.326;2023-02-01T07:07:43;11.77;;;9.10;;
1567;SDS011;777;47.156;8.326;2023-02-01T07:10:10;11.90;;;9.07;;
1567;SDS011;777;47.156;8.326;2023-02-01T07:12:37;14.45;;;9.40;;
1567;SDS011;777;47.156;8.326;2023-02-01T07:15:06;14.43;;;9.57;;
1567;SDS011;777;47.156;8.326;2023-02-01T07:17:33;15.18;;;9.45;;
1567;SDS011;777;47.156;8.326;2023-02-01T07:20:00;15.25;;;10.70;;
1567;SDS011;777;47.156;8.326;2023-02-01T07:22:27;17.73;;;11.93;;
1567;SDS011;777;47.156;8.326;2023-02-01T07:24:54;14.02;;;10.45;;
1567;SDS011;777;47.156;8.326;2023-02-01T07:27:21;13.15;;;9.93;;
1567;SDS011;777;47.156;8.326;2023-02-01T07:29:50;13.65;;;9.70;;
1567;SDS011;777;47.156;8.326;2023-02-01T07:32:18;13.38;;;10.32;;
1567;SDS011;777;47.156;8.326;2023-02-01T07:34:45;17.23;;;11.80;;
1567;SDS011;777;47.156;8.326;2023-02-01T07:37:12;13.43;;;10.23;;
1567;SDS011;777;47.156;8.326;2023-02-01T07:39:39;14.45;;;9.48;;
1567;SDS011;777;47.156;8.326;2023-02-01T07:42:06;13.10;;;9.20;;
1567;SDS011;777;47.156;8.326;2023-02-01T07:44:33;14.05;;;9.13;;
1567;SDS011;777;47.156;8.326;2023-02-01T07:47:00;12.95;;;9.43;;
1567;SDS011;777;47.156;8.326;2023-02-01T07:49:29;14.73;;;9.07;;
1567;SDS011;777;47.156;8.326;2023-02-01T07:51:56;12.52;;;8.18;;
1567;SDS011;777;47.156;8.326;2023-02-01T07:54:23;10.90;;;8.23;;
1567;SDS011;777;47.156;8.326;2023-02-01T07:56:50;9.82;;;8.15;;
1567;SDS011;777;47.156;8.326;2023-02-01T07:59:17;11.50;;;8.70;;
1567;SDS011;777;47.156;8.326;2023-02-01T08:01:44;10.77;;;8.40;;
1567;SDS011;777;47.156;8.326;2023-02-01T08:04:11;11.30;;;8.63;;
1567;SDS011;777;47.156;8.326;2023-02-01T08:06:40;11.20;;;8.00;;
1567;SDS011;777;47.156;8.326;2023-02-01T08:09:07;12.18;;;8.05;;
1567;SDS011;777;47.156;8.326;2023-02-01T08:11:36;12.35;;;8.35;;
1567;SDS011;777;47.156;8.326;2023-02-01T08:14:03;10.13;;;7.72;;
1567;SDS011;777;47.156;8.326;2023-02-01T08:16:31;10.25;;;8.10;;
1567;SDS011;777;47.156;8.326;2023-02-01T08:19:00;10.00;;;7.40;;
1567;SDS011;777;47.156;8.326;2023-02-01T08:21:27;10.02;;;7.50;;
1567;SDS011;777;47.156;8.326;2023-02-01T08:24:03;9.40;;;7.50;;
1567;SDS011;777;47.156;8.326;2023-02-01T08:26:31;8.60;;;7.10;;
1567;SDS011;777;47.156;8.326;2023-02-01T08:28:59;8.75;;;7.43;;
1567;SDS011;777;47.156;8.326;2023-02-01T08:31:28;12.57;;;7.63;;
1567;SDS011;777;47.156;8.326;2023-02-01T08:33:57;10.43;;;7.80;;
1567;SDS011;777;47.156;8.326;2023-02-01T08:36:26;11.68;;;8.23;;
1567;SDS011;777;47.156;8.326;2023-02-01T08:38:54;9.65;;;7.47;;
1567;SDS011;777;47.156;8.326;2023-02-01T08:41:24;10.70;;;7.57;;
1567;SDS011;777;47.156;8.326;2023-02-01T08:43:53;11.25;;;7.47;;
1567;SDS011;777;47.156;8.326;2023-02-01T08:46:21;12.23;;;8.18;;
1567;SDS011;777;47.156;8.326;2023-02-01T08:48:49;9.68;;;7.03;;
1567;SDS011;777;47.156;8.326;2023-02-01T08:51:17;10.52;;;6.95;;
1567;SDS011;777;47.156;8.326;2023-02-01T08:53:46;12.50;;;7.13;;
1567;SDS011;777;47.156;8.326;2023-02-01T08:56:14;10.93;;;7.53;;
1567;SDS011;777;47.156;8.326;2023-02-01T08:58:43;12.60;;;7.38;;
1567;SDS011;777;47.156;8.326;2023-02-01T09:01:12;11.35;;;8.40;;
1567;SDS011;777;47.156;8.326;2023-02-01T09:03:41;12.48;;;7.65;;
1567;SDS011;777;47.156;8.326;2023-02-01T09:06:09;12.32;;;7.72;;
1567;SDS011;777;47.156;8.326;2023-02-01T09:08:39;11.43;;;6.95;;
1567;SDS011;777;47.156;8.326;2023-02-01T09:11:08;10.77;;;7.40;;
1567;SDS011;777;47.156;8.326;2023-02-01T09:13:38;10.15;;;8.02;;
1567;SDS011;777;47.156;8.326;2023-02-01T09:16:07;8.95;;;6.93;;
1567;SDS011;777;47.156;8.326;2023-02-01T09:18:34;12.82;;;7.43;;
1567;SDS011;777;47.156;8.326;2023-02-01T09:21:03;9.07;;;6.90;;
1567;SDS011;777;47.156;8.326;2023-02-01T09:23:30;13.27;;;7.75;;
1567;SDS011;777;47.156;8.326;2023-02-01T09:25:58;9.63;;;7.18;;
1567;SDS011;777;47.156;8.326;2023-02-01T09:28:25;14.63;;;7.65;;
1567;SDS011;777;47.156;8.326;2023-02-01T09:30:54;13.30;;;8.02;;
1567;SDS011;777;47.156;8.326;2023-02-01T09:33:24;13.27;;;6.90;;
1567;SDS011;777;47.156;8.326;2023-02-01T09:35:54;11.70;;;7.35;;
1567;SDS011;777;47.156;8.326;2023-02-01T09:38:22;14.80;;;7.10;;
1567;SDS011;777;47.156;8.326;2023-02-01T09:40:50;11.05;;;6.88;;
1567;SDS011;777;47.156;8.326;2023-02-01T09:43:21;9.27;;;6.45;;
1567;SDS011;777;47.156;8.326;2023-02-01T09:45:59;11.40;;;7.38;;
1567;SDS011;777;47.156;8.326;2023-02-01T09:48:39;11.85;;;6.93;;
1567;SDS011;777;47.156;8.326;2023-02-01T09:51:11;9.00;;;6.43;;
1567;SDS011;777;47.156;8.326;2023-02-01T09:53:42;11.82;;;6.53;;
1567;SDS011;777;47.156;8.326;2023-02-01T09:56:14;12.10;;;6.70;;
1567;SDS011;777;47.156;8.326;2023-02-01T09:58:47;15.45;;;6.68;;
1567;SDS011;777;47.156;8.326;2023-02-01T10:01:19;8.63;;;6.45;;
1567;SDS011;777;47.156;8.326;2023-02-01T10:03:49;9.00;;;6.07;;
1567;SDS011;777;47.156;8.326;2023-02-01T10:06:22;11.32;;;6.80;;
1567;SDS011;777;47.156;8.326;2023-02-01T10:08:59;8.63;;;5.97;;
1567;SDS011;777;47.156;8.326;2023-02-01T10:11:40;8.85;;;6.05;;
1567;SDS011;777;47.156;8.326;2023-02-01T10:14:25;14.40;;;6.50;;
1567;SDS011;777;47.156;8.326;2023-02-01T10:17:12;9.65;;;6.55;;
1567;SDS011;777;47.156;8.326;2023-02-01T10:19:51;13.38;;;6.47;;
1567;SDS011;777;47.156;8.326;2023-02-01T10:22:32;9.15;;;5.97;;
1567;SDS011;777;47.156;8.326;2023-02-01T10:25:08;9.63;;;5.63;;
1567;SDS011;777;47.156;8.326;2023-02-01T10:27:40;9.40;;;5.70;;
1567;SDS011;777;47.156;8.326;2023-02-01T10:30:14;9.20;;;6.00;;
1567;SDS011;777;47.156;8.326;2023-02-01T10:32:45;7.75;;;4.82;;
1567;SDS011;777;47.156;8.326;2023-02-01T10:35:17;7.05;;;5.22;;
1567;SDS011;777;47.156;8.326;2023-02-01T10:37:48;5.32;;;4.00;;
1567;SDS011;777;47.156;8.326;2023-02-01T10:40:16;8.98;;;4.03;;
1567;SDS011;777;47.156;8.326;2023-02-01T10:42:47;5.70;;;3.70;;
1567;SDS011;777;47.156;8.326;2023-02-01T10:45:16;8.88;;;3.22;;
1567;SDS011;777;47.156;8.326;2023-02-01T10:47:45;8.18;;;3.10;;
1567;SDS011;777;47.156;8.326;2023-02-01T10:50:18;4.53;;;2.60;;
1567;SDS011;777;47.156;8.326;2023-02-01T10:52:52;9.68;;;3.20;;
1567;SDS011;777;47.156;8.326;2023-02-01T10:55:30;7.10;;;3.00;;
1567;SDS011;777;47.156;8.326;2023-02-01T10:58:00;4.68;;;2.33;;
1567;SDS011;777;47.156;8.326;2023-02-01T11:00:34;3.08;;;2.08;;
1567;SDS011;777;47.156;8.326;2023-02-01T11:03:30;3.70;;;2.38;;
1567;SDS011;777;47.156;8.326;2023-02-01T11:06:03;3.65;;;2.33;;
1567;SDS011;777;47.156;8.326;2023-02-01T11:08:41;2.85;;;1.98;;
1567;SDS011;777;47.156;8.326;2023-02-01T11:11:10;3.17;;;2.00;;
1567;SDS011;777;47.156;8.326;2023-02-01T11:13:38;3.30;;;1.92;;
1567;SDS011;777;47.156;8.326;2023-02-01T11:16:08;4.18;;;2.30;;
1567;SDS011;777;47.156;8.326;2023-02-01T11:18:38;2.67;;;1.75;;
1567;SDS011;777;47.156;8.326;2023-02-01T11:21:07;3.72;;;2.03;;
1567;SDS011;777;47.156;8.326;2023-02-01T11:23:39;5.13;;;1.70;;
1567;SDS011;777;47.156;8.326;2023-02-01T11:26:10;4.83;;;2.00;;
1567;SDS011;777;47.156;8.326;2023-02-01T11:28:40;3.40;;;1.83;;
1567;SDS011;777;47.156;8.326;2023-02-01T11:31:17;3.47;;;1.50;;
1567;SDS011;777;47.156;8.326;2023-02-01T11:33:47;2.08;;;1.50;;
1567;SDS011;777;47.156;8.326;2023-02-01T11:36:21;2.50;;;1.00;;
1567;SDS011;777;47.156;8.326;2023-02-01T11:38:53;2.40;;;1.35;;
1567;SDS011;777;47.156;8.326;2023-02-01T11:41:33;1.30;;;1.15;;
1567;SDS011;777;47.156;8.326;2023-02-01T11:44:02;1.83;;;1.17;;
1567;SDS011;777;47.156;8.326;2023-02-01T11:49:20;2.17;;;1.00;;
1567;SDS011;777;47.156;8.326;2023-02-01T11:51:57;1.70;;;1.00;;
1567;SDS011;777;47.156;8.326;2023-02-01T11:54:38;1.65;;;1.00;;
1567;SDS011;777;47.156;8.326;2023-02-01T11:57:25;5.47;;;1.00;;
1567;SDS011;777;47.156;8.326;2023-02-01T12:00:10;1.45;;;0.90;;
1567;SDS011;777;47.156;8.326;2023-02-01T12:03:02;1.80;;;0.75;;
1567;SDS011;777;47.156;8.326;2023-02-01T12:05:46;4.63;;;1.10;;
1567;SDS011;777;47.156;8.326;2023-02-01T12:08:27;1.33;;;0.95;;
1567;SDS011;777;47.156;8.326;2023-02-01T12:11:06;3.55;;;1.00;;
1567;SDS011;777;47.156;8.326;2023-02-01T12:13:49;1.48;;;0.80;;
1567;SDS011;777;47.156;8.326;2023-02-01T12:16:27;1.38;;;0.80;;
1567;SDS011;777;47.156;8.326;2023-02-01T12:19:05;0.90;;;0.75;;
1567;SDS011;777;47.156;8.326;2023-02-01T12:21:53;2.03;;;0.77;;
1567;SDS011;777;47.156;8.326;2023-02-01T12:24:36;1.60;;;0.80;;
1567;SDS011;777;47.156;8.326;2023-02-01T12:27:32;1.67;;;0.90;;
1567;SDS011;777;47.156;8.326;2023-02-01T12:30:30;2.00;;;0.98;;
1567;SDS011;777;47.156;8.326;2023-02-01T12:33:17;2.10;;;1.00;;
1567;SDS011;777;47.156;8.326;2023-02-01T12:35:59;2.30;;;0.90;;
1567;SDS011;777;47.156;8.326;2023-02-01T12:38:49;1.38;;;0.77;;
1567;SDS011;777;47.156;8.326;2023-02-01T12:41:25;2.25;;;0.90;;
1567;SDS011;777;47.156;8.326;2023-02-01T12:44:03;2.40;;;1.13;;
1567;SDS011;777;47.156;8.326;2023-02-01T12:46:35;2.75;;;1.20;;
1567;SDS011;777;47.156;8.326;2023-02-01T12:49:08;1.98;;;1.10;;
1567;SDS011;777;47.156;8.326;2023-02-01T12:51:40;1.98;;;1.20;;
1567;SDS011;777;47.156;8.326;2023-02-01T12:54:11;2.15;;;1.15;;
1567;SDS011;777;47.156;8.326;2023-02-01T12:56:44;1.30;;;1.00;;
1567;SDS011;777;47.156;8.326;2023-02-01T12:59:16;2.08;;;1.10;;
1567;SDS011;777;47.156;8.326;2023-02-01T13:01:48;4.97;;;1.30;;
1567;SDS011;777;47.156;8.326;2023-02-01T13:04:25;2.63;;;1.55;;
1567;SDS011;777;47.156;8.326;2023-02-01T13:06:57;2.05;;;1.55;;
1567;SDS011;777;47.156;8.326;2023-02-01T13:09:30;2.10;;;1.23;;
1567;SDS011;777;47.156;8.326;2023-02-01T13:12:06;3.72;;;1.60;;
1567;SDS011;777;47.156;8.326;2023-02-01T13:14:40;4.10;;;1.38;;
1567;SDS011;777;47.156;8.326;2023-02-01T13:17:14;3.35;;;1.30;;
1567;SDS011;777;47.156;8.326;2023-02-01T13:19:45;2.67;;;1.42;;
1567;SDS011;777;47.156;8.326;2023-02-01T13:22:17;2.33;;;1.48;;
1567;SDS011;777;47.156;8.326;2023-02-01T13:24:48;2.58;;;1.50;;
1567;SDS011;777;47.156;8.326;2023-02-01T13:27:19;1.73;;;1.13;;
1567;SDS011;777;47.156;8.326;2023-02-01T13:29:48;2.70;;;1.42;;
1567;SDS011;777;47.156;8.326;2023-02-01T13:41:54;2.20;;;1.30;;
1567;SDS011;777;47.156;8.326;2023-02-01T13:44:27;3.00;;;1.50;;
1567;SDS011;777;47.156;8.326;2023-02-01T13:49:27;4.47;;;1.50;;
1567;SDS011;777;47.156;8.326;2023-02-01T13:51:57;2.55;;;1.42;;
1567;SDS011;777;47.156;8.326;2023-02-01T13:54:26;3.22;;;1.48;;
1567;SDS011;777;47.156;8.326;2023-02-01T13:56:56;2.58;;;1.33;;
1567;SDS011;777;47.156;8.326;2023-02-01T14:05:56;1.83;;;1.15;;
1567;SDS011;777;47.156;8.326;2023-02-01T14:08:38;1.77;;;1.45;;
1567;SDS011;777;47.156;8.326;2023-02-01T14:14:02;2.17;;;1.30;;
1567;SDS011;777;47.156;8.326;2023-02-01T14:23:21;2.72;;;1.38;;
1567;SDS011;777;47.156;8.326;2023-02-01T14:29:01;3.30;;;1.80;;
1567;SDS011;777;47.156;8.326;2023-02-01T14:31:40;4.90;;;1.92;;
1567;SDS011;777;47.156;8.326;2023-02-01T14:34:16;6.07;;;1.75;;
1567;SDS011;777;47.156;8.326;2023-02-01T14:36:47;3.40;;;1.90;;
1567;SDS011;777;47.156;8.326;2023-02-01T14:39:21;5.15;;;2.25;;
1567;SDS011;777;47.156;8.326;2023-02-01T14:41:53;5.65;;;2.35;;
1567;SDS011;777;47.156;8.326;2023-02-01T14:44:23;5.35;;;2.50;;
1567;SDS011;777;47.156;8.326;2023-02-01T14:47:06;4.32;;;2.13;;
1567;SDS011;777;47.156;8.326;2023-02-01T14:50:00;3.97;;;2.30;;
1567;SDS011;777;47.156;8.326;2023-02-01T14:52:45;4.65;;;2.42;;
1567;SDS011;777;47.156;8.326;2023-02-01T14:55:17;4.90;;;2.60;;
1567;SDS011;777;47.156;8.326;2023-02-01T14:57:50;5.88;;;2.45;;
1567;SDS011;777;47.156;8.326;2023-02-01T15:00:22;2.70;;;2.03;;
1567;SDS011;777;47.156;8.326;2023-02-01T15:02:52;5.30;;;2.20;;
1567;SDS011;777;47.156;8.326;2023-02-01T15:08:07;4.43;;;2.17;;
1567;SDS011;777;47.156;8.326;2023-02-01T15:10:43;6.10;;;2.75;;
1567;SDS011;777;47.156;8.326;2023-02-01T15:13:18;10.85;;;3.88;;
1567;SDS011;777;47.156;8.326;2023-02-01T15:15:59;4.30;;;2.50;;
1567;SDS011;777;47.156;8.326;2023-02-01T15:18:27;4.90;;;1.80;;
1567;SDS011;777;47.156;8.326;2023-02-01T15:20:58;4.78;;;2.17;;
1567;SDS011;777;47.156;8.326;2023-02-01T15:23:26;3.97;;;1.80;;
1567;SDS011;777;47.156;8.326;2023-02-01T15:25:55;4.57;;;2.08;;
1567;SDS011;777;47.156;8.326;2023-02-01T15:28:24;4.63;;;1.95;;
1567;SDS011;777;47.156;8.326;2023-02-01T15:30:53;3.58;;;1.75;;
1567;SDS011;777;47.156;8.326;2023-02-01T15:33:21;4.57;;;2.28;;
1567;SDS011;777;47.156;8.326;2023-02-01T15:35:49;3.97;;;1.75;;
1567;SDS011;777;47.156;8.326;2023-02-01T15:38:18;7.20;;;1.83;;
1567;SDS011;777;47.156;8.326;2023-02-01T15:41:01;5.97;;;2.05;;
1567;SDS011;777;47.156;8.326;2023-02-01T15:43:32;7.80;;;2.53;;
1567;SDS011;777;47.156;8.326;2023-02-01T15:46:02;7.43;;;2.13;;
1567;SDS011;777;47.156;8.326;2023-02-01T15:48:37;6.38;;;1.95;;
1567;SDS011;777;47.156;8.326;2023-02-01T15:51:11;5.80;;;2.25;;
1567;SDS011;777;47.156;8.326;2023-02-01T15:53:46;6.30;;;1.90;;
1567;SDS011;777;47.156;8.326;2023-02-01T15:56:17;4.90;;;1.60;;
1567;SDS011;777;47.156;8.326;2023-02-01T15:58:50;4.55;;;1.70;;
1567;SDS011;777;47.156;8.326;2023-02-01T16:01:20;5.95;;;1.90;;
1567;SDS011;777;47.156;8.326;2023-02-01T16:03:47;3.78;;;1.80;;
1567;SDS011;777;47.156;8.326;2023-02-01T16:06:28;8.10;;;2.00;;
1567;SDS011;777;47.156;8.326;2023-02-01T16:09:00;7.43;;;1.95;;
1567;SDS011;777;47.156;8.326;2023-02-01T16:11:31;7.72;;;2.55;;
1567;SDS011;777;47.156;8.326;2023-02-01T16:14:06;7.55;;;2.15;;
1567;SDS011;777;47.156;8.326;2023-02-01T16:16:33;8.15;;;1.80;;
1567;SDS011;777;47.156;8.326;2023-02-01T16:19:00;7.28;;;1.70;;
1567;SDS011;777;47.156;8.326;2023-02-01T16:21:27;6.93;;;1.70;;
1567;SDS011;777;47.156;8.326;2023-02-01T16:23:54;5.50;;;1.90;;
1567;SDS011;777;47.156;8.326;2023-02-01T16:26:21;8.13;;;2.22;;
1567;SDS011;777;47.156;8.326;2023-02-01T16:28:49;8.45;;;2.17;;
1567;SDS011;777;47.156;8.326;2023-02-01T16:31:17;6.20;;;1.73;;
1567;SDS011;777;47.156;8.326;2023-02-01T16:33:48;4.35;;;1.75;;
1567;SDS011;777;47.156;8.326;2023-02-01T16:36:16;5.97;;;2.10;;